< < Back
Terminal Aerodrome Forecast


Current Version              Previous Versions:   1  2  3  4  5  6  7  8  9  

Terminal Aerodrome Forecast

488
FTUS42 KFFC 211100
TAFMCN
TAF
KMCN 211134Z 2112/2212 VRB03KT 6SM BR SCT250
     FM211400 27006KT P6SM SKC
     FM211900 29010KT P6SM SCT050
     FM220000 27003KT P6SM SCT150
     FM220900 28005KT P6SM SCT025 BKN050=



Latest METAR

699
SAUS80 KWBC 211600
MTRMCN
METAR KMCN 211553Z 31006KT 10SM CLR 28/16 A3005 RMK AO2 SLP172 T02830156
$


USA.gov is the U.S. government's official web portal to all federal, state and local government web resources and services.